createdAt,value
2022-09-07T00:00:37.549Z,19.30
2022-09-07T00:03:05.898Z,19.50
2022-09-07T00:05:34.213Z,19.50
2022-09-07T00:08:01.137Z,19.50
2022-09-07T00:10:28.888Z,19.70
2022-09-07T00:12:55.909Z,19.90
2022-09-07T00:15:23.030Z,20.10
2022-09-07T00:17:50.017Z,20.10
2022-09-07T00:20:17.340Z,20.10
2022-09-07T00:22:46.088Z,19.90
2022-09-07T00:25:14.033Z,19.80
2022-09-07T00:27:41.305Z,19.80
2022-09-07T00:30:08.527Z,19.50
2022-09-07T00:32:35.574Z,19.30
2022-09-07T00:35:03.489Z,19.30
2022-09-07T00:37:30.517Z,19.40
2022-09-07T00:39:57.642Z,19.40
2022-09-07T00:42:24.597Z,19.50
2022-09-07T00:45:16.804Z,19.60
2022-09-07T00:48:04.921Z,19.40
2022-09-07T00:50:43.356Z,19.40
2022-09-07T00:53:16.400Z,19.20
2022-09-07T00:55:45.118Z,18.90
2022-09-07T00:58:13.009Z,19.00
2022-09-07T01:00:46.297Z,19.00
2022-09-07T01:03:24.578Z,19.10
2022-09-07T01:06:02.576Z,19.30
2022-09-07T01:08:30.385Z,19.30
2022-09-07T01:10:58.618Z,19.40
2022-09-07T01:13:25.448Z,19.40
2022-09-07T01:15:56.854Z,19.50
2022-09-07T01:18:47.010Z,19.70
2022-09-07T01:21:26.815Z,19.60
2022-09-07T01:24:22.443Z,19.60
2022-09-07T01:27:21.417Z,19.50
2022-09-07T01:30:08.192Z,19.70
2022-09-07T01:32:40.969Z,19.50
2022-09-07T01:35:21.941Z,19.30
2022-09-07T01:38:23.376Z,19.30
2022-09-07T01:41:26.991Z,19.30
2022-09-07T01:44:02.964Z,19.50
2022-09-07T01:46:34.170Z,19.70
2022-09-07T01:49:08.914Z,19.70
2022-09-07T01:51:43.300Z,19.80
2022-09-07T01:54:37.603Z,19.70
2022-09-07T01:57:13.437Z,19.40
2022-09-07T01:59:47.537Z,19.20
2022-09-07T02:02:21.147Z,19.20
2022-09-07T02:04:51.292Z,19.20
2022-09-07T02:07:31.014Z,19.20
2022-09-07T02:10:30.090Z,19.10
2022-09-07T02:13:07.043Z,19.10
2022-09-07T02:15:48.937Z,18.90
2022-09-07T02:18:15.861Z,18.80
2022-09-07T02:20:49.248Z,18.90
2022-09-07T02:23:23.046Z,18.80
2022-09-07T02:25:59.685Z,19.00
2022-09-07T02:28:33.619Z,19.00
2022-09-07T02:31:01.620Z,19.00
2022-09-07T02:33:29.425Z,19.00
2022-09-07T02:35:57.266Z,18.90
2022-09-07T02:38:24.982Z,18.80
2022-09-07T02:40:54.101Z,18.90
2022-09-07T02:43:22.669Z,19.00
2022-09-07T02:45:49.479Z,19.00
2022-09-07T02:48:29.254Z,19.10
2022-09-07T02:51:12.012Z,19.20
2022-09-07T02:53:58.613Z,19.20
2022-09-07T02:56:37.812Z,19.00
2022-09-07T02:59:14.924Z,18.90
2022-09-07T03:02:00.872Z,18.90
2022-09-07T03:04:57.281Z,19.10
2022-09-07T03:07:35.998Z,19.30
2022-09-07T03:10:06.534Z,19.30
2022-09-07T03:12:48.201Z,19.30
2022-09-07T03:15:18.702Z,19.20
2022-09-07T03:17:46.144Z,18.90
2022-09-07T03:20:13.024Z,18.70
2022-09-07T03:22:40.268Z,18.70
2022-09-07T03:25:07.929Z,18.60
2022-09-07T03:27:35.604Z,18.60
2022-09-07T03:30:03.633Z,18.70
2022-09-07T03:32:32.777Z,18.70
2022-09-07T03:35:00.853Z,18.60
2022-09-07T03:37:28.390Z,18.60
2022-09-07T03:39:56.421Z,18.50
2022-09-07T03:42:23.592Z,18.40
2022-09-07T03:44:50.581Z,18.40
2022-09-07T03:47:18.175Z,18.40
2022-09-07T03:49:45.032Z,18.60
2022-09-07T03:52:12.186Z,18.60
2022-09-07T03:54:39.843Z,18.60
2022-09-07T03:57:07.252Z,18.50
2022-09-07T03:59:35.397Z,18.60
2022-09-07T04:02:02.560Z,18.60
2022-09-07T04:04:29.696Z,18.50
2022-09-07T04:06:56.730Z,18.60
2022-09-07T04:09:23.817Z,18.40
2022-09-07T04:11:51.628Z,18.40
2022-09-07T04:14:19.546Z,18.30
2022-09-07T04:16:46.706Z,18.50
2022-09-07T04:19:14.141Z,18.50
2022-09-07T04:21:42.718Z,18.40
2022-09-07T04:24:09.880Z,18.40
2022-09-07T04:26:37.216Z,18.40
2022-09-07T04:29:04.482Z,18.30
2022-09-07T04:31:33.649Z,18.40
2022-09-07T04:34:02.694Z,18.60
2022-09-07T04:36:29.717Z,18.80
2022-09-07T04:39:01.766Z,18.70
2022-09-07T04:41:31.760Z,18.50
2022-09-07T04:44:01.254Z,18.40
2022-09-07T04:46:35.055Z,18.30
2022-09-07T04:49:10.352Z,18.00
2022-09-07T04:51:38.710Z,17.90
2022-09-07T04:54:07.274Z,18.00
2022-09-07T04:56:35.189Z,18.10
2022-09-07T04:59:03.805Z,18.10
2022-09-07T05:01:31.117Z,18.30
2022-09-07T05:04:01.199Z,18.20
2022-09-07T05:06:28.581Z,18.30
2022-09-07T05:08:55.953Z,18.10
2022-09-07T05:11:28.782Z,18.10
2022-09-07T05:14:01.766Z,18.10
2022-09-07T05:16:29.594Z,18.10
2022-09-07T05:18:59.683Z,18.00
2022-09-07T05:21:28.989Z,17.90
2022-09-07T05:23:57.625Z,18.00
2022-09-07T05:26:28.509Z,17.90
2022-09-07T05:31:42.847Z,17.90
2022-09-07T05:37:00.058Z,17.90
2022-09-07T05:39:28.792Z,17.90
2022-09-07T05:41:56.304Z,17.90
2022-09-07T05:47:10.573Z,17.70
2022-09-07T05:49:37.583Z,17.60
2022-09-07T05:52:05.722Z,17.60
2022-09-07T05:54:32.526Z,17.60
2022-09-07T05:57:03.498Z,17.60
2022-09-07T05:59:30.442Z,17.60
2022-09-07T06:34:38.843Z,19.40
2022-09-07T07:33:17.479Z,25.90
2022-09-07T07:43:57.048Z,26.90
2022-09-07T07:46:27.388Z,27.70
2022-09-07T07:48:54.841Z,28.30
2022-09-07T07:51:22.408Z,29.40
2022-09-07T07:53:49.200Z,30.90
2022-09-07T07:56:16.384Z,30.70
2022-09-07T07:58:48.280Z,31.50
2022-09-07T08:01:17.547Z,31.90
2022-09-07T08:03:46.753Z,31.70
2022-09-07T08:06:16.690Z,31.10
2022-09-07T08:08:45.456Z,31.50
2022-09-07T08:11:18.567Z,31.90
2022-09-07T08:13:49.577Z,31.50
2022-09-07T08:16:17.826Z,30.90
2022-09-07T08:18:47.091Z,31.20
2022-09-07T08:21:15.810Z,30.80
2022-09-07T08:23:43.436Z,31.00
2022-09-07T08:26:10.600Z,30.10
2022-09-07T08:28:39.381Z,29.20
2022-09-07T08:31:15.177Z,29.30
2022-09-07T08:33:42.519Z,29.20
2022-09-07T08:36:14.456Z,30.10
2022-09-07T08:38:41.428Z,30.30
2022-09-07T08:41:33.653Z,30.40
2022-09-07T08:44:18.327Z,29.50
2022-09-07T08:46:58.437Z,28.40
2022-09-07T08:49:52.536Z,27.90
2022-09-07T08:52:47.642Z,27.30
2022-09-07T08:55:31.225Z,29.40
2022-09-07T08:58:22.195Z,30.40
2022-09-07T09:06:41.188Z,29.20
2022-09-07T09:09:20.324Z,29.80
2022-09-07T09:12:06.318Z,30.70
2022-09-07T09:14:56.593Z,30.30
2022-09-07T09:17:34.077Z,30.30
2022-09-07T09:20:14.773Z,30.10
2022-09-07T09:22:43.085Z,29.70
2022-09-07T09:25:33.784Z,28.80
2022-09-07T09:28:02.045Z,28.70
2022-09-07T09:33:21.565Z,27.30
2022-09-07T09:35:50.803Z,27.50
2022-09-07T09:38:34.338Z,27.20
2022-09-07T09:41:09.196Z,27.10
2022-09-07T09:43:57.240Z,27.10
2022-09-07T09:49:26.264Z,27.40
2022-09-07T09:54:48.633Z,28.10
2022-09-07T09:57:16.879Z,29.70
2022-09-07T10:00:03.905Z,30.90
2022-09-07T10:05:42.644Z,31.00
2022-09-07T10:08:21.070Z,30.50
2022-09-07T10:10:58.773Z,29.60
2022-09-07T10:13:31.722Z,29.60
2022-09-07T10:16:05.156Z,29.70
2022-09-07T10:18:39.596Z,28.70
2022-09-07T10:21:35.728Z,28.70
2022-09-07T10:24:05.382Z,29.60
2022-09-07T10:26:36.186Z,30.70
2022-09-07T10:31:51.743Z,30.30
2022-09-07T10:34:46.569Z,30.50
2022-09-07T10:37:33.915Z,30.70
2022-09-07T10:40:20.893Z,30.70
2022-09-07T10:43:22.486Z,30.30
2022-09-07T10:45:55.596Z,30.10
2022-09-07T10:48:46.801Z,29.50
2022-09-07T10:51:42.576Z,29.80
2022-09-07T10:54:33.336Z,31.00
2022-09-07T11:00:11.767Z,30.80
2022-09-07T11:05:35.122Z,29.80
2022-09-07T11:09:15.670Z,29.90
2022-09-07T11:14:25.449Z,30.60
2022-09-07T11:17:01.313Z,31.50
2022-09-07T11:19:42.110Z,31.50
2022-09-07T11:22:30.935Z,31.60
2022-09-07T11:27:47.168Z,31.60
2022-09-07T11:30:28.233Z,31.20
2022-09-07T11:33:17.900Z,30.50
2022-09-07T11:38:25.649Z,28.80
2022-09-07T11:41:16.903Z,30.20
2022-09-07T11:44:09.766Z,31.20
2022-09-07T11:46:47.977Z,30.50
2022-09-07T11:49:26.224Z,29.50
2022-09-07T11:51:58.315Z,28.60
2022-09-07T11:54:36.630Z,28.30
2022-09-07T11:57:15.812Z,27.90
2022-09-07T12:00:22.498Z,28.70
2022-09-07T12:03:28.098Z,28.40
2022-09-07T12:06:00.430Z,28.50
2022-09-07T12:08:58.410Z,28.30
2022-09-07T12:12:01.419Z,28.00
2022-09-07T12:15:18.961Z,27.40
2022-09-07T12:18:01.893Z,28.20
2022-09-07T12:20:47.836Z,28.80
2022-09-07T12:23:36.191Z,30.20
2022-09-07T12:26:38.278Z,30.60
2022-09-07T12:32:52.585Z,29.50
2022-09-07T12:37:33.814Z,28.50
2022-09-07T12:40:29.780Z,28.10
2022-09-07T12:43:14.863Z,27.90
2022-09-07T12:45:44.849Z,28.60
2022-09-07T12:48:17.917Z,29.50
2022-09-07T12:51:09.540Z,29.90
2022-09-07T12:54:02.805Z,29.50
2022-09-07T13:08:21.588Z,27.90
2022-09-07T13:10:48.517Z,28.70
2022-09-07T13:46:24.408Z,27.30
2022-09-07T13:59:43.131Z,26.70
2022-09-07T14:02:38.296Z,26.60
2022-09-07T14:10:35.703Z,26.70
2022-09-07T14:13:06.694Z,26.90
2022-09-07T14:18:18.078Z,26.90
2022-09-07T14:42:45.706Z,26.10
2022-09-07T15:01:43.334Z,26.00
2022-09-07T15:04:19.348Z,26.00
2022-09-07T15:07:02.987Z,25.80
2022-09-07T15:09:37.753Z,25.70
2022-09-07T15:12:13.500Z,25.60
2022-09-07T15:14:40.274Z,25.50
2022-09-07T15:20:50.714Z,25.50
2022-09-07T15:23:19.530Z,25.80
2022-09-07T15:25:53.624Z,25.90
2022-09-07T15:34:02.263Z,25.40
2022-09-07T15:36:31.863Z,25.20
2022-09-07T15:39:00.484Z,25.10
2022-09-07T15:41:29.587Z,25.10
2022-09-07T15:43:57.109Z,25.10
2022-09-07T15:46:25.911Z,25.00
2022-09-07T15:48:54.727Z,24.90
2022-09-07T15:54:14.282Z,24.70
2022-09-07T15:56:43.756Z,24.60
2022-09-07T15:59:29.946Z,24.40
2022-09-07T16:01:58.080Z,24.40
2022-09-07T16:04:25.154Z,24.40
2022-09-07T16:06:52.169Z,24.40
2022-09-07T16:09:21.859Z,24.60
2022-09-07T16:11:50.060Z,24.60
2022-09-07T16:14:17.982Z,24.70
2022-09-07T16:19:34.964Z,24.50
2022-09-07T16:22:03.069Z,24.40
2022-09-07T16:24:29.820Z,24.40
2022-09-07T16:26:57.042Z,24.30
2022-09-07T16:29:24.707Z,24.40
2022-09-07T16:34:39.886Z,24.30
2022-09-07T16:37:06.862Z,24.30
2022-09-07T16:39:34.544Z,24.30
2022-09-07T16:42:01.599Z,24.30
2022-09-07T16:44:28.268Z,24.30
2022-09-07T16:46:55.257Z,24.20
2022-09-07T16:49:22.564Z,24.20
2022-09-07T16:51:49.826Z,24.20
2022-09-07T16:54:17.196Z,24.10
2022-09-07T16:56:43.989Z,24.10
2022-09-07T16:59:15.990Z,24.00
2022-09-07T17:01:44.960Z,24.00
2022-09-07T17:04:12.233Z,24.00
2022-09-07T17:06:40.177Z,24.10
2022-09-07T17:09:07.761Z,24.10
2022-09-07T17:11:36.197Z,24.20
2022-09-07T17:14:05.359Z,24.20
2022-09-07T17:16:38.025Z,23.90
2022-09-07T17:21:55.500Z,23.80
2022-09-07T17:24:24.413Z,23.80
2022-09-07T17:26:51.466Z,23.80
2022-09-07T17:29:19.413Z,23.90
2022-09-07T17:34:33.079Z,23.90
2022-09-07T17:37:01.238Z,23.90
2022-09-07T17:39:29.523Z,24.00
2022-09-07T17:41:57.779Z,24.10
2022-09-07T17:44:24.605Z,24.20
2022-09-07T17:46:51.618Z,24.10
2022-09-07T17:49:18.759Z,23.90
2022-09-07T17:51:46.190Z,23.90
2022-09-07T17:54:15.608Z,23.80
2022-09-07T17:56:43.517Z,23.70
2022-09-07T18:01:58.970Z,23.60
2022-09-07T18:04:26.315Z,23.60
2022-09-07T18:06:54.327Z,23.30
2022-09-07T18:09:21.776Z,23.30
2022-09-07T18:11:49.911Z,23.10
2022-09-07T18:14:18.793Z,22.90
2022-09-07T18:16:48.846Z,22.90
2022-09-07T18:19:16.922Z,22.80
2022-09-07T18:21:45.469Z,22.80
2022-09-07T18:24:16.820Z,22.90
2022-09-07T18:26:49.626Z,22.80
2022-09-07T18:29:28.821Z,22.70
2022-09-07T18:31:57.108Z,22.60
2022-09-07T18:34:24.225Z,22.60
2022-09-07T18:36:51.221Z,22.60
2022-09-07T18:39:18.264Z,22.70
2022-09-07T18:41:45.200Z,22.80
2022-09-07T18:47:00.368Z,22.70
2022-09-07T18:49:27.313Z,22.80
2022-09-07T18:54:37.414Z,22.70
2022-09-07T18:57:04.428Z,22.60
2022-09-07T18:59:31.418Z,22.50
2022-09-07T19:02:03.660Z,22.50
2022-09-07T19:07:20.291Z,22.60
2022-09-07T19:09:48.135Z,22.40
2022-09-07T19:12:15.080Z,22.40
2022-09-07T19:14:42.885Z,22.30
2022-09-07T19:17:12.601Z,22.20
2022-09-07T19:19:40.211Z,22.10
2022-09-07T19:22:07.160Z,22.20
2022-09-07T19:24:34.219Z,22.20
2022-09-07T19:27:01.314Z,22.10
2022-09-07T19:29:29.055Z,22.00
2022-09-07T19:32:05.226Z,21.90
2022-09-07T19:34:33.389Z,21.90
2022-09-07T19:37:01.047Z,22.00
2022-09-07T19:39:28.411Z,22.00
2022-09-07T19:41:55.119Z,22.00
2022-09-07T19:44:22.143Z,21.90
2022-09-07T19:46:50.426Z,22.00
2022-09-07T19:49:18.237Z,21.90
2022-09-07T19:51:44.941Z,21.90
2022-09-07T19:54:13.594Z,21.80
2022-09-07T19:56:45.106Z,21.80
2022-09-07T19:59:14.345Z,22.00
2022-09-07T20:01:46.213Z,21.80
2022-09-07T20:04:20.290Z,21.70
2022-09-07T20:06:49.773Z,21.50
2022-09-07T20:09:17.951Z,21.40
2022-09-07T20:11:46.867Z,21.40
2022-09-07T20:14:14.929Z,21.50
2022-09-07T20:16:42.983Z,21.70
2022-09-07T20:19:16.488Z,21.70
2022-09-07T20:21:43.512Z,21.60
2022-09-07T20:24:14.657Z,21.60
2022-09-07T20:26:41.929Z,21.50
2022-09-07T20:29:26.941Z,21.40
2022-09-07T20:31:55.957Z,21.40
2022-09-07T20:34:22.897Z,21.20
2022-09-07T20:36:51.538Z,21.20
2022-09-07T20:39:18.906Z,21.20
2022-09-07T20:41:45.858Z,21.10
2022-09-07T20:44:14.173Z,21.20
2022-09-07T20:46:41.210Z,21.20
2022-09-07T20:49:08.205Z,21.20
2022-09-07T20:51:35.281Z,21.20
2022-09-07T20:54:02.172Z,21.10
2022-09-07T20:56:30.418Z,21.10
2022-09-07T20:58:59.997Z,21.10
2022-09-07T21:01:28.391Z,21.20
2022-09-07T21:03:57.925Z,21.30
2022-09-07T21:06:25.363Z,21.20
2022-09-07T21:08:52.374Z,21.20
2022-09-07T21:11:22.198Z,21.10
2022-09-07T21:13:55.883Z,21.00
2022-09-07T21:16:22.929Z,20.90
2022-09-07T21:18:54.885Z,20.90
2022-09-07T21:21:23.612Z,20.90
2022-09-07T21:23:55.860Z,20.70
2022-09-07T21:26:23.897Z,20.80
2022-09-07T21:28:58.364Z,20.80
2022-09-07T21:31:27.832Z,20.70
2022-09-07T21:33:56.156Z,20.80
2022-09-07T21:36:23.294Z,20.80
2022-09-07T21:38:50.604Z,20.90
2022-09-07T21:41:19.893Z,20.80
2022-09-07T21:43:46.932Z,20.90
2022-09-07T21:46:18.658Z,20.90
2022-09-07T21:48:46.222Z,20.90
2022-09-07T21:51:14.445Z,21.00
2022-09-07T21:53:43.269Z,21.00
2022-09-07T21:56:12.429Z,20.80
2022-09-07T21:58:40.064Z,21.00
2022-09-07T22:01:12.226Z,21.10
2022-09-07T22:03:40.487Z,21.00
2022-09-07T22:06:08.439Z,20.80
2022-09-07T22:08:37.208Z,20.70
2022-09-07T22:11:06.503Z,20.60
2022-09-07T22:13:33.541Z,20.50
2022-09-07T22:16:00.863Z,20.30
2022-09-07T22:18:30.200Z,20.40
2022-09-07T22:21:15.419Z,20.30
2022-09-07T22:23:45.485Z,20.40
2022-09-07T22:26:12.824Z,20.30
2022-09-07T22:28:40.732Z,20.20
2022-09-07T22:31:18.199Z,20.20
2022-09-07T22:33:46.616Z,20.10
2022-09-07T22:36:13.950Z,20.20
2022-09-07T22:38:42.564Z,20.20
2022-09-07T22:41:20.877Z,20.20
2022-09-07T22:43:50.804Z,20.10
2022-09-07T22:46:19.210Z,20.10
2022-09-07T22:48:46.313Z,20.20
2022-09-07T22:51:13.058Z,20.30
2022-09-07T22:53:41.656Z,20.10
2022-09-07T22:56:11.721Z,20.10
2022-09-07T22:58:39.008Z,20.00
2022-09-07T23:01:06.572Z,20.00
2022-09-07T23:03:35.288Z,20.00
2022-09-07T23:06:02.906Z,20.10
2022-09-07T23:08:30.019Z,20.10
2022-09-07T23:11:03.019Z,20.10
2022-09-07T23:13:30.085Z,20.10
2022-09-07T23:16:03.843Z,20.00
2022-09-07T23:18:30.636Z,19.80
2022-09-07T23:21:00.542Z,19.70
2022-09-07T23:23:28.650Z,19.60
2022-09-07T23:25:56.827Z,19.20
2022-09-07T23:28:23.717Z,19.00
2022-09-07T23:30:51.217Z,18.80
2022-09-07T23:33:18.314Z,18.60
2022-09-07T23:35:56.034Z,18.40
2022-09-07T23:38:23.880Z,18.40
2022-09-07T23:40:51.015Z,18.20
2022-09-07T23:43:17.937Z,18.10
2022-09-07T23:45:44.977Z,18.10
2022-09-07T23:48:12.049Z,18.00
2022-09-07T23:50:39.952Z,18.00
2022-09-07T23:53:06.921Z,18.00
2022-09-07T23:55:34.021Z,18.00
2022-09-07T23:58:01.007Z,18.00
